Time;durP1;ratioP1;P1;durP2;ratioP2;P2;SDS_P1;SDS_P2;PMS_P1;PMS_P2;Temp;Humidity;BMP_temperature;BMP_pressure;BME280_temperature;BME280_humidity;BME280_pressure;Samples;Min_cycle;Max_cycle;Signal;HPM_P1;HPM_P2
2022/11/10 00:00:32;;;;;;;17.08;3.95;;;9.10;99.90;;;;;;5057466;28;20106;-72
2022/11/10 00:03:02;;;;;;;17.27;4.22;;;9.10;99.90;;;;;;5057597;28;20067;-72
2022/11/10 00:05:29;;;;;;;20.75;4.78;;;9.30;99.90;;;;;;5057186;28;20342;-72
2022/11/10 00:07:54;;;;;;;21.05;5.00;;;9.10;99.90;;;;;;5057371;28;20103;-72
2022/11/10 00:10:20;;;;;;;17.60;4.97;;;9.10;99.90;;;;;;5056422;28;20049;-72
2022/11/10 00:12:45;;;;;;;16.67;3.83;;;9.00;99.90;;;;;;5057278;28;20047;-72
2022/11/10 00:17:55;;;;;;;17.42;4.63;;;9.00;99.90;;;;;;5056908;28;20464;-71
2022/11/10 00:20:21;;;;;;;17.38;4.70;;;9.00;99.90;;;;;;5056937;28;20033;-72
2022/11/10 00:22:46;;;;;;;22.92;4.75;;;9.00;99.90;;;;;;5056993;28;20445;-71
2022/11/10 00:25:12;;;;;;;23.40;5.50;;;9.00;99.90;;;;;;5056815;28;20365;-71
2022/11/10 00:27:41;;;;;;;21.25;4.80;;;9.00;99.90;;;;;;5055956;28;20128;-72
2022/11/10 00:30:06;;;;;;;26.20;5.57;;;9.00;99.90;;;;;;5057121;28;20049;-72
2022/11/10 00:32:32;;;;;;;15.82;5.30;;;9.00;99.90;;;;;;5056718;28;20053;-72
2022/11/10 00:34:58;;;;;;;22.45;6.13;;;9.00;99.90;;;;;;5056609;28;20449;-71
2022/11/10 00:37:23;;;;;;;26.00;6.72;;;9.00;99.90;;;;;;5056728;28;20045;-72
2022/11/10 00:39:49;;;;;;;23.48;6.43;;;8.90;99.90;;;;;;5056831;28;20051;-72
2022/11/10 00:42:14;;;;;;;23.10;6.00;;;8.90;99.90;;;;;;5038793;28;20099;-71
2022/11/10 00:44:40;;;;;;;20.45;5.53;;;8.90;99.90;;;;;;5056385;28;20037;-72
2022/11/10 00:47:06;;;;;;;23.48;6.45;;;8.90;99.90;;;;;;5056781;28;20140;-72
2022/11/10 00:49:32;;;;;;;21.73;6.15;;;9.00;99.90;;;;;;5056195;28;20072;-72
2022/11/10 00:51:57;;;;;;;24.52;6.43;;;9.00;99.90;;;;;;5056421;28;20036;-71
2022/11/10 00:54:23;;;;;;;24.52;6.18;;;9.00;99.90;;;;;;5056452;28;20052;-72
2022/11/10 00:56:48;;;;;;;22.42;6.00;;;8.90;99.90;;;;;;5056030;28;20049;-72
2022/11/10 00:59:14;;;;;;;22.50;6.60;;;9.00;99.90;;;;;;5056260;28;20041;-71
2022/11/10 01:01:39;;;;;;;22.63;7.00;;;8.90;99.90;;;;;;5055480;28;20033;-72
2022/11/10 01:04:05;;;;;;;21.70;6.82;;;8.90;99.90;;;;;;5055810;28;20449;-71
2022/11/10 01:06:31;;;;;;;20.42;6.10;;;8.90;99.90;;;;;;5056167;28;20032;-72
2022/11/10 01:08:56;;;;;;;24.25;7.30;;;8.80;99.90;;;;;;5021821;28;20128;-72
2022/11/10 01:11:25;;;;;;;27.88;7.75;;;8.90;99.90;;;;;;5021886;28;20357;-71
2022/11/10 01:13:52;;;;;;;23.13;7.20;;;8.80;99.90;;;;;;5055996;28;20044;-71
2022/11/10 01:16:30;;;;;;;24.83;8.40;;;8.80;99.90;;;;;;5055663;28;20053;-72
2022/11/10 01:18:58;;;;;;;30.33;8.90;;;8.70;99.90;;;;;;5055730;28;20059;-72
2022/11/10 01:21:25;;;;;;;35.90;8.88;;;8.70;99.90;;;;;;5055851;28;20037;-71
2022/11/10 01:23:50;;;;;;;22.52;7.55;;;8.80;99.90;;;;;;5055798;28;20028;-72
2022/11/10 01:26:17;;;;;;;26.50;8.27;;;8.70;99.90;;;;;;5037860;28;20102;-72
2022/11/10 01:28:43;;;;;;;27.33;9.07;;;8.70;99.90;;;;;;5055657;28;20041;-72
2022/11/10 01:31:11;;;;;;;27.63;9.27;;;8.60;99.90;;;;;;5055659;28;20037;-72
2022/11/10 01:33:37;;;;;;;25.17;8.57;;;8.60;99.90;;;;;;5037770;28;20118;-71
2022/11/10 01:36:08;;;;;;;36.60;10.07;;;8.70;99.90;;;;;;5021628;28;20072;-72
2022/11/10 01:38:36;;;;;;;29.33;10.23;;;8.60;99.90;;;;;;5055581;28;20072;-71
2022/11/10 01:41:03;;;;;;;32.28;10.75;;;8.70;99.90;;;;;;5055267;28;20072;-71
2022/11/10 01:43:30;;;;;;;30.08;10.15;;;8.70;99.90;;;;;;5055345;28;20037;-72
2022/11/10 01:46:02;;;;;;;32.05;11.13;;;8.70;99.90;;;;;;5055211;28;20445;-71
2022/11/10 01:48:38;;;;;;;31.95;11.23;;;8.70;99.90;;;;;;5055089;28;20437;-72
2022/11/10 01:51:28;;;;;;;31.33;11.13;;;8.70;99.90;;;;;;5055435;28;20063;-72
2022/11/10 01:54:00;;;;;;;32.22;10.48;;;8.60;99.90;;;;;;5055297;28;20041;-72
2022/11/10 01:56:28;;;;;;;31.38;11.07;;;8.60;99.90;;;;;;5055011;28;20175;-73
2022/11/10 01:58:58;;;;;;;37.67;10.90;;;8.60;99.90;;;;;;5055456;28;20044;-72
2022/11/10 02:01:24;;;;;;;30.83;11.05;;;8.60;99.90;;;;;;5021081;28;20059;-72
2022/11/10 02:03:56;;;;;;;32.72;11.73;;;8.60;99.90;;;;;;5036424;28;20041;-71
2022/11/10 02:06:25;;;;;;;33.33;11.55;;;8.60;99.90;;;;;;5054982;28;20051;-72
2022/11/10 02:08:52;;;;;;;30.55;10.80;;;8.60;99.90;;;;;;5037511;28;20037;-71
2022/11/10 02:11:18;;;;;;;36.22;12.88;;;9.20;99.90;;;;;;5054979;28;20043;-71
2022/11/10 02:13:44;;;;;;;35.08;13.10;;;8.60;99.90;;;;;;5054175;28;20452;-72
2022/11/10 02:16:10;;;;;;;30.48;11.30;;;8.60;99.90;;;;;;5055118;28;20057;-72
2022/11/10 02:18:37;;;;;;;34.25;12.57;;;8.60;99.90;;;;;;5054672;28;20060;-71
2022/11/10 02:21:08;;;;;;;31.92;12.32;;;8.60;99.90;;;;;;5037585;28;20033;-71
2022/11/10 02:23:36;;;;;;;30.38;12.57;;;8.60;99.90;;;;;;5054912;28;20037;-72
2022/11/10 02:26:05;;;;;;;38.30;13.40;;;8.60;99.90;;;;;;5054950;28;20128;-72
2022/11/10 02:28:35;;;;;;;27.30;11.30;;;8.60;99.90;;;;;;5054922;28;20526;-72
2022/11/10 02:31:02;;;;;;;32.25;12.45;;;8.60;99.90;;;;;;5037151;28;20064;-71
2022/11/10 02:33:28;;;;;;;35.90;12.00;;;8.60;99.90;;;;;;5054318;28;20102;-72
2022/11/10 02:35:53;;;;;;;32.35;13.07;;;8.60;99.90;;;;;;5055047;28;20044;-72
2022/11/10 02:38:19;;;;;;;37.78;13.27;;;8.70;99.90;;;;;;5054838;28;20041;-72
2022/11/10 02:40:45;;;;;;;29.67;12.30;;;8.70;99.90;;;;;;5054627;28;20131;-71
2022/11/10 02:43:13;;;;;;;31.80;12.75;;;8.70;99.90;;;;;;5054695;28;20475;-72
2022/11/10 02:45:42;;;;;;;31.42;11.52;;;8.80;99.90;;;;;;5054305;28;20065;-71
2022/11/10 02:48:08;;;;;;;31.63;10.57;;;8.80;99.90;;;;;;5054674;28;20068;-72
2022/11/10 02:50:34;;;;;;;29.70;11.95;;;8.80;99.90;;;;;;5054704;28;20044;-71
2022/11/10 02:53:03;;;;;;;33.80;11.68;;;8.80;99.90;;;;;;5054407;28;20369;-71
2022/11/10 02:55:28;;;;;;;26.05;10.80;;;8.80;99.90;;;;;;5054410;28;20037;-73
2022/11/10 02:57:54;;;;;;;29.27;10.13;;;8.80;99.90;;;;;;5037036;28;20041;-72
2022/11/10 03:00:23;;;;;;;32.55;11.30;;;8.80;99.90;;;;;;5054151;28;20045;-72
2022/11/10 03:02:54;;;;;;;24.40;9.55;;;8.80;99.90;;;;;;5054782;28;20056;-71
2022/11/10 03:05:19;;;;;;;34.42;10.60;;;8.80;99.90;;;;;;5036646;28;20130;-70
2022/11/10 03:07:50;;;;;;;23.63;8.77;;;8.80;99.90;;;;;;5054189;28;20080;-71
2022/11/10 03:10:16;;;;;;;29.65;10.27;;;8.80;99.90;;;;;;5054454;28;20091;-70
2022/11/10 03:12:42;;;;;;;27.55;9.30;;;8.80;99.90;;;;;;5037310;28;20049;-71
2022/11/10 03:15:11;;;;;;;29.42;9.15;;;8.80;99.90;;;;;;5036663;28;20442;-70
2022/11/10 03:17:40;;;;;;;33.65;9.70;;;8.80;99.90;;;;;;5054394;28;20083;-70
2022/11/10 03:20:06;;;;;;;33.30;9.30;;;9.10;99.90;;;;;;5054587;28;20045;-71
2022/11/10 03:22:32;;;;;;;27.58;10.65;;;8.80;99.90;;;;;;5054345;28;20041;-71
2022/11/10 03:24:57;;;;;;;33.72;9.90;;;8.90;99.90;;;;;;5056612;28;20049;-71
2022/11/10 03:27:23;;;;;;;34.72;9.50;;;8.80;99.90;;;;;;5058488;28;20120;-71
2022/11/10 03:29:48;;;;;;;32.17;9.85;;;8.80;99.90;;;;;;5057627;28;20044;-71
2022/11/10 03:32:14;;;;;;;28.52;9.43;;;8.80;99.90;;;;;;5057971;28;20037;-71
2022/11/10 03:34:40;;;;;;;24.77;9.27;;;8.80;99.90;;;;;;5057906;28;20532;-70
2022/11/10 03:37:05;;;;;;;35.28;9.35;;;8.80;99.90;;;;;;5058103;28;20044;-71
2022/11/10 03:39:31;;;;;;;29.00;10.02;;;8.80;99.90;;;;;;5057842;28;20040;-71
2022/11/10 03:41:56;;;;;;;32.40;9.52;;;8.80;99.90;;;;;;5057819;28;20040;-71
2022/11/10 03:44:22;;;;;;;31.40;10.05;;;8.70;99.90;;;;;;5057247;28;20119;-72
2022/11/10 03:46:47;;;;;;;31.95;10.15;;;8.70;99.90;;;;;;5039742;28;20040;-72
2022/11/10 03:49:13;;;;;;;27.63;9.90;;;8.70;99.90;;;;;;5057759;28;20044;-72
2022/11/10 03:51:38;;;;;;;37.67;11.77;;;8.70;99.90;;;;;;5057810;28;20077;-72
2022/11/10 03:54:04;;;;;;;30.50;11.60;;;8.70;99.90;;;;;;5039895;28;20040;-71
2022/11/10 03:56:30;;;;;;;31.40;11.43;;;8.70;99.90;;;;;;5039546;28;20116;-72
2022/11/10 03:58:55;;;;;;;28.23;11.30;;;8.70;99.90;;;;;;5057074;28;20048;-71
2022/11/10 04:01:22;;;;;;;32.13;11.05;;;8.70;99.90;;;;;;5056961;28;20049;-71
2022/11/10 04:03:48;;;;;;;26.80;11.65;;;8.70;99.90;;;;;;5057325;28;20056;-71
2022/11/10 04:09:11;;;;;;;40.83;12.57;;;8.70;99.90;;;;;;4996330;28;20049;-71
2022/11/10 04:17:05;;;;;;;38.45;13.60;;;8.70;99.90;;;;;;5036791;28;20050;-72
2022/11/10 04:19:31;;;;;;;33.72;12.85;;;8.70;99.90;;;;;;5036735;28;20045;-72
2022/11/10 04:21:57;;;;;;;36.35;12.60;;;8.70;99.90;;;;;;5036991;28;20450;-71
2022/11/10 04:24:22;;;;;;;34.33;12.85;;;8.60;99.90;;;;;;5037248;28;20124;-72
2022/11/10 04:26:48;;;;;;;39.97;13.68;;;8.60;99.90;;;;;;5037732;28;20049;-72
2022/11/10 04:29:16;;;;;;;47.08;15.23;;;8.60;99.90;;;;;;5036962;28;20056;-71
2022/11/10 04:31:42;;;;;;;42.97;14.82;;;8.60;99.90;;;;;;5037184;28;20052;-73
2022/11/10 04:34:10;;;;;;;42.92;13.52;;;8.60;99.90;;;;;;5036243;28;20034;-72
2022/11/10 04:36:38;;;;;;;49.72;15.75;;;8.60;99.90;;;;;;5035583;28;20481;-72
2022/11/10 04:39:05;;;;;;;36.40;16.33;;;8.70;99.90;;;;;;5037211;28;20073;-72
2022/11/10 04:41:30;;;;;;;44.05;16.48;;;8.70;99.90;;;;;;5036802;28;20041;-72
2022/11/10 04:43:57;;;;;;;41.00;16.05;;;8.80;99.90;;;;;;5036636;28;20124;-71
2022/11/10 04:46:26;;;;;;;44.97;15.68;;;8.80;99.90;;;;;;5018999;28;20454;-71
2022/11/10 04:48:53;;;;;;;39.25;15.18;;;8.80;99.90;;;;;;5036335;28;20033;-72
2022/11/10 04:51:21;;;;;;;40.92;13.88;;;8.80;99.90;;;;;;5036520;28;20056;-72
2022/11/10 04:53:47;;;;;;;40.10;15.23;;;8.80;99.90;;;;;;5036469;28;20392;-72
2022/11/10 04:56:15;;;;;;;44.42;15.45;;;9.30;99.90;;;;;;5036483;28;20107;-72
2022/11/10 04:58:41;;;;;;;40.78;15.20;;;8.80;99.90;;;;;;5019596;28;20129;-71
2022/11/10 05:01:14;;;;;;;39.90;15.10;;;8.70;99.90;;;;;;5034521;28;20401;-71
2022/11/10 05:03:40;;;;;;;42.53;15.93;;;8.80;99.90;;;;;;5034356;28;20458;-70
2022/11/10 05:06:06;;;;;;;47.65;15.05;;;8.90;99.90;;;;;;5032607;28;20421;-70
2022/11/10 05:08:32;;;;;;;36.17;13.57;;;8.90;99.90;;;;;;5001387;28;20048;-70
2022/11/10 05:10:58;;;;;;;36.65;13.77;;;8.90;99.90;;;;;;5033625;28;20049;-70
2022/11/10 05:13:23;;;;;;;47.78;15.35;;;8.90;99.90;;;;;;5033882;28;20064;-73
2022/11/10 05:15:50;;;;;;;42.97;13.40;;;9.00;99.90;;;;;;5033707;28;20481;-71
2022/11/10 05:18:16;;;;;;;35.75;14.20;;;8.90;99.90;;;;;;5016942;28;20508;-72
2022/11/10 05:20:41;;;;;;;40.20;13.57;;;9.00;99.90;;;;;;5033679;28;20038;-72
2022/11/10 05:25:51;;;;;;;34.45;13.45;;;9.00;99.90;;;;;;5033527;28;20118;-72
2022/11/10 05:28:17;;;;;;;41.53;12.82;;;9.00;99.90;;;;;;5034154;28;20116;-71
2022/11/10 05:30:42;;;;;;;40.08;12.43;;;9.00;99.90;;;;;;5033693;28;20041;-72
2022/11/10 05:33:08;;;;;;;39.80;13.23;;;9.00;99.90;;;;;;5054252;28;20060;-73
2022/11/10 05:35:35;;;;;;;41.60;13.48;;;9.10;99.90;;;;;;5055445;28;20041;-72
2022/11/10 05:38:03;;;;;;;43.03;13.68;;;9.00;99.90;;;;;;5054634;28;20132;-72
2022/11/10 05:40:29;;;;;;;43.92;12.73;;;9.00;99.90;;;;;;5037935;28;20033;-72
2022/11/10 05:42:55;;;;;;;34.58;12.30;;;9.10;99.90;;;;;;5055758;28;20045;-72
2022/11/10 05:45:23;;;;;;;39.67;12.50;;;9.10;99.90;;;;;;5055536;28;20037;-72
2022/11/10 05:47:49;;;;;;;46.67;13.27;;;9.10;99.90;;;;;;5055055;28;20083;-73
2022/11/10 05:50:15;;;;;;;40.55;11.68;;;9.10;99.90;;;;;;5055301;28;20448;-72
2022/11/10 05:52:47;;;;;;;32.50;11.07;;;9.10;99.90;;;;;;5019550;28;20045;-73
2022/11/10 05:55:14;;;;;;;39.50;12.32;;;9.10;99.90;;;;;;5055569;28;20045;-71
2022/11/10 05:57:43;;;;;;;39.60;11.32;;;9.10;99.90;;;;;;5055165;28;20041;-72
2022/11/10 06:00:09;;;;;;;36.75;10.35;;;9.10;99.90;;;;;;5055135;28;20041;-70
2022/11/10 06:02:35;;;;;;;31.98;10.95;;;9.10;99.90;;;;;;5055306;28;20079;-71
2022/11/10 06:05:01;;;;;;;39.65;11.38;;;9.10;99.90;;;;;;5055225;28;20457;-71
2022/11/10 06:07:26;;;;;;;38.92;11.13;;;9.10;99.90;;;;;;5045651;28;20053;-73
2022/11/10 06:09:52;;;;;;;35.75;11.15;;;9.10;99.90;;;;;;5034935;28;20358;-72
2022/11/10 06:12:17;;;;;;;40.25;10.88;;;9.10;99.90;;;;;;5034995;28;20072;-72
2022/11/10 06:14:43;;;;;;;40.08;11.65;;;9.10;99.90;;;;;;5035183;28;20056;-71
2022/11/10 06:17:08;;;;;;;39.72;12.25;;;9.10;99.90;;;;;;5035151;28;20057;-71
2022/11/10 06:19:34;;;;;;;44.03;11.02;;;9.20;99.90;;;;;;5035067;28;20041;-72
2022/11/10 06:22:00;;;;;;;34.38;11.18;;;9.20;99.90;;;;;;5042391;28;20461;-72
2022/11/10 06:24:25;;;;;;;45.92;13.15;;;9.30;99.90;;;;;;5054446;28;20475;-72
2022/11/10 06:26:51;;;;;;;41.22;11.23;;;9.30;99.90;;;;;;5037464;28;20045;-71
2022/11/10 06:29:16;;;;;;;37.13;11.45;;;9.30;99.90;;;;;;5055142;28;20119;-72
2022/11/10 06:31:42;;;;;;;34.78;11.00;;;9.30;99.90;;;;;;5054980;28;20116;-71
2022/11/10 06:34:07;;;;;;;43.70;11.55;;;9.30;99.90;;;;;;5037270;28;20079;-71
2022/11/10 06:36:37;;;;;;;44.50;11.95;;;9.30;99.90;;;;;;5035379;28;20132;-71
2022/11/10 06:39:02;;;;;;;38.42;12.27;;;9.30;99.90;;;;;;5035688;28;20041;-72
2022/11/10 06:41:28;;;;;;;37.20;10.80;;;9.30;99.90;;;;;;5034769;28;20048;-72
2022/11/10 06:43:54;;;;;;;37.45;10.55;;;9.30;99.90;;;;;;5034719;28;20041;-72
2022/11/10 06:46:20;;;;;;;43.00;11.35;;;9.30;99.90;;;;;;5034642;28;20073;-72
2022/11/10 06:48:46;;;;;;;38.92;11.75;;;9.30;99.90;;;;;;5034783;28;20469;-71
2022/11/10 06:51:11;;;;;;;39.38;11.45;;;9.20;99.90;;;;;;5035615;28;20078;-72
2022/11/10 06:53:37;;;;;;;35.03;10.75;;;9.20;99.90;;;;;;5054261;28;20106;-72
2022/11/10 06:56:03;;;;;;;37.85;11.05;;;9.30;99.90;;;;;;5054473;28;20048;-71
2022/11/10 06:58:28;;;;;;;31.58;10.30;;;9.30;99.90;;;;;;5054985;28;20037;-73
2022/11/10 07:00:54;;;;;;;34.00;11.00;;;9.30;99.90;;;;;;5058240;28;20033;-73
2022/11/10 07:03:19;;;;;;;39.08;12.38;;;9.30;99.90;;;;;;5058638;28;20087;-72
2022/11/10 07:05:45;;;;;;;41.67;12.57;;;9.30;99.90;;;;;;5059240;28;20045;-71
2022/11/10 07:08:15;;;;;;;34.80;11.65;;;9.40;99.90;;;;;;5025798;28;20048;-72
2022/11/10 07:10:41;;;;;;;37.08;11.73;;;9.40;99.90;;;;;;5038305;28;20033;-72
2022/11/10 07:13:08;;;;;;;41.63;12.38;;;9.50;99.90;;;;;;5038355;28;20111;-71
2022/11/10 07:15:34;;;;;;;33.22;11.82;;;9.40;99.90;;;;;;5038442;28;20064;-72
2022/11/10 07:18:01;;;;;;;39.28;12.43;;;9.50;99.90;;;;;;5038328;28;20038;-72
2022/11/10 07:20:27;;;;;;;33.58;11.05;;;9.50;99.90;;;;;;5038925;28;20068;-71
2022/11/10 07:23:00;;;;;;;38.83;11.60;;;9.60;99.90;;;;;;5052103;28;20045;-71
2022/11/10 07:25:28;;;;;;;39.63;11.25;;;9.60;99.90;;;;;;5058462;28;20144;-72
2022/11/10 07:27:58;;;;;;;41.90;12.57;;;9.60;99.90;;;;;;5058043;28;20056;-72
2022/11/10 07:30:25;;;;;;;46.88;12.70;;;9.70;99.90;;;;;;5057973;28;20052;-72
2022/11/10 07:33:10;;;;;;;33.88;10.73;;;9.80;99.90;;;;;;5057956;28;20032;-72
2022/11/10 07:35:36;;;;;;;40.83;11.15;;;9.70;99.90;;;;;;5040423;28;20065;-72
2022/11/10 07:38:06;;;;;;;43.10;10.93;;;9.70;99.90;;;;;;5039730;28;20377;-71
2022/11/10 07:40:33;;;;;;;35.38;10.82;;;9.80;99.90;;;;;;5037761;28;20452;-71
2022/11/10 07:42:58;;;;;;;36.70;10.40;;;9.70;99.90;;;;;;5037763;28;20452;-71
2022/11/10 07:45:25;;;;;;;38.08;10.48;;;9.70;99.90;;;;;;5037754;28;20044;-73
2022/11/10 07:47:51;;;;;;;33.50;10.02;;;9.70;99.90;;;;;;5020204;28;20037;-72
2022/11/10 07:50:17;;;;;;;34.72;10.40;;;9.60;99.90;;;;;;5037754;28;20118;-72
2022/11/10 07:52:43;;;;;;;41.25;11.18;;;9.60;99.90;;;;;;5020118;28;20107;-72
2022/11/10 07:55:08;;;;;;;37.05;11.60;;;9.70;99.90;;;;;;5037573;28;20099;-71
2022/11/10 07:57:34;;;;;;;41.17;11.90;;;10.00;99.90;;;;;;5037490;28;20041;-71
2022/11/10 07:59:59;;;;;;;29.98;9.80;;;9.70;99.90;;;;;;5037659;28;20163;-71
2022/11/10 08:02:26;;;;;;;31.52;10.73;;;9.80;99.90;;;;;;5035609;28;20056;-72
2022/11/10 08:04:51;;;;;;;44.75;11.35;;;9.70;99.90;;;;;;5037418;28;20405;-73
2022/11/10 08:07:17;;;;;;;37.03;11.45;;;9.90;99.90;;;;;;5052738;28;20037;-72
2022/11/10 08:09:43;;;;;;;35.80;10.55;;;9.70;99.90;;;;;;5057153;28;20449;-72
2022/11/10 08:12:09;;;;;;;38.05;10.70;;;9.70;99.90;;;;;;5057540;28;20064;-71
2022/11/10 08:14:34;;;;;;;34.10;11.40;;;9.70;99.90;;;;;;5057280;28;20036;-72
2022/11/10 08:17:00;;;;;;;40.35;12.05;;;9.70;99.90;;;;;;5057013;28;20067;-72
2022/11/10 08:19:26;;;;;;;36.17;12.43;;;9.70;99.90;;;;;;5056930;28;20052;-71
2022/11/10 08:21:51;;;;;;;36.75;12.73;;;9.70;99.90;;;;;;5042356;28;20465;-72
2022/11/10 08:24:17;;;;;;;38.22;13.05;;;9.70;99.90;;;;;;5037012;28;20124;-71
2022/11/10 08:26:43;;;;;;;33.92;12.05;;;9.70;99.90;;;;;;5037121;28;20083;-72
2022/11/10 08:29:08;;;;;;;39.38;13.05;;;9.70;99.90;;;;;;5037041;28;20037;-72
2022/11/10 08:31:34;;;;;;;43.22;13.45;;;9.70;99.90;;;;;;5037208;28;20056;-72
2022/11/10 08:34:00;;;;;;;39.42;13.15;;;9.80;99.90;;;;;;5002876;28;20049;-72
2022/11/10 08:36:25;;;;;;;31.63;12.05;;;9.80;99.90;;;;;;5044981;28;20037;-72
2022/11/10 08:38:51;;;;;;;44.75;11.88;;;9.90;99.90;;;;;;5019100;28;20413;-72
2022/11/10 08:41:16;;;;;;;34.35;12.32;;;10.00;99.90;;;;;;5019413;28;20472;-71
2022/11/10 08:43:42;;;;;;;33.25;12.05;;;10.00;99.90;;;;;;5036972;28;20053;-72
2022/11/10 08:46:10;;;;;;;33.63;11.18;;;10.10;99.90;;;;;;5036548;28;20049;-72
2022/11/10 08:48:36;;;;;;;38.50;12.07;;;10.20;99.90;;;;;;5037018;28;20068;-72
2022/11/10 08:51:02;;;;;;;30.52;10.57;;;10.20;99.90;;;;;;5036670;28;20450;-72
2022/11/10 08:53:27;;;;;;;32.00;12.70;;;10.40;99.90;;;;;;5051121;28;20186;-72
2022/11/10 08:55:57;;;;;;;32.95;10.88;;;10.40;99.90;;;;;;5056389;28;20044;-72
2022/11/10 08:58:23;;;;;;;31.45;11.55;;;10.40;99.90;;;;;;5056310;28;20047;-71
2022/11/10 09:00:50;;;;;;;30.85;10.73;;;10.40;99.90;;;;;;5056292;28;20467;-71
2022/11/10 09:03:21;;;;;;;35.10;10.95;;;10.40;99.90;;;;;;5046608;28;20041;-71
2022/11/10 09:05:47;;;;;;;31.90;11.15;;;10.50;99.90;;;;;;5036172;28;20133;-71
2022/11/10 09:08:14;;;;;;;31.95;10.93;;;10.70;99.90;;;;;;5018734;28;20116;-72
2022/11/10 09:10:43;;;;;;;34.53;11.75;;;10.40;99.90;;;;;;5036535;28;20037;-72
2022/11/10 09:13:10;;;;;;;29.77;10.45;;;10.50;99.90;;;;;;5002241;28;20053;-72
2022/11/10 09:15:36;;;;;;;36.97;9.82;;;10.50;99.90;;;;;;5036049;28;20126;-72
2022/11/10 09:18:04;;;;;;;35.80;11.20;;;10.50;99.90;;;;;;5036304;28;20045;-72
2022/11/10 09:20:32;;;;;;;39.33;11.20;;;10.60;99.90;;;;;;5048274;28;20103;-71
2022/11/10 09:23:07;;;;;;;31.70;10.30;;;10.60;99.90;;;;;;5055404;28;20401;-72
2022/11/10 09:25:33;;;;;;;31.88;9.93;;;10.70;99.90;;;;;;5056092;28;20098;-72
2022/11/10 09:27:58;;;;;;;34.28;10.55;;;10.80;99.90;;;;;;5056442;28;20041;-71
2022/11/10 09:30:25;;;;;;;28.85;8.82;;;11.10;99.90;;;;;;5056002;28;20041;-72
2022/11/10 09:32:54;;;;;;;30.27;9.63;;;10.90;99.90;;;;;;5050112;28;20029;-73
2022/11/10 09:35:20;;;;;;;30.08;9.20;;;11.10;99.90;;;;;;5018290;28;20041;-73
2022/11/10 09:37:45;;;;;;;34.08;9.20;;;11.20;99.90;;;;;;5002241;28;20491;-71
2022/11/10 09:40:18;;;;;;;26.10;9.50;;;11.20;99.90;;;;;;5035778;28;20458;-72
2022/11/10 09:42:47;;;;;;;25.02;8.45;;;11.30;99.90;;;;;;5035445;28;20068;-72
2022/11/10 09:45:23;;;;;;;25.88;8.43;;;11.50;99.90;;;;;;5035255;28;20049;-72
2022/11/10 09:47:57;;;;;;;32.45;9.57;;;11.60;99.90;;;;;;5035452;28;20037;-73
2022/11/10 09:50:29;;;;;;;26.85;7.22;;;11.70;99.90;;;;;;5035542;28;20037;-72
2022/11/10 09:52:57;;;;;;;29.88;8.32;;;11.70;99.90;;;;;;5035685;28;20124;-71
2022/11/10 09:55:44;;;;;;;24.25;7.60;;;11.80;99.90;;;;;;5035412;28;20048;-72
2022/11/10 09:58:13;;;;;;;22.13;7.72;;;11.80;99.90;;;;;;5035254;28;20052;-73
2022/11/10 10:00:45;;;;;;;32.05;8.10;;;11.80;99.90;;;;;;5035419;28;20064;-72
2022/11/10 10:03:18;;;;;;;27.20;7.22;;;11.80;99.90;;;;;;5029387;28;20072;-72
2022/11/10 10:06:08;;;;;;;29.25;7.35;;;11.90;99.90;;;;;;5055504;28;20049;-72
2022/11/10 10:09:02;;;;;;;26.73;8.02;;;11.90;99.90;;;;;;5045539;28;20064;-72
2022/11/10 10:11:42;;;;;;;31.73;7.28;;;12.10;99.90;;;;;;5054952;28;20048;-72
2022/11/10 10:14:29;;;;;;;23.08;6.78;;;12.20;99.90;;;;;;5054796;28;20120;-71
2022/11/10 10:17:18;;;;;;;28.65;6.53;;;12.30;99.90;;;;;;5051104;28;20057;-72
2022/11/10 10:19:52;;;;;;;25.55;7.05;;;12.30;99.90;;;;;;5034635;28;20052;-71
2022/11/10 10:22:43;;;;;;;23.60;6.55;;;12.40;99.90;;;;;;5035445;28;20099;-72
2022/11/10 10:25:23;;;;;;;24.63;6.18;;;12.40;99.90;;;;;;5017986;28;20425;-71
2022/11/10 10:27:56;;;;;;;24.70;5.95;;;12.40;99.90;;;;;;5034908;28;20114;-72
2022/11/10 10:30:22;;;;;;;31.20;6.93;;;12.80;99.90;;;;;;5034934;28;20361;-71
2022/11/10 10:32:55;;;;;;;27.95;6.68;;;12.50;99.90;;;;;;5043259;28;20037;-72
2022/11/10 10:35:21;;;;;;;31.13;7.07;;;12.60;99.90;;;;;;5058859;28;20182;-72
2022/11/10 10:37:53;;;;;;;25.33;7.28;;;12.70;99.90;;;;;;5058899;28;20429;-71
2022/11/10 10:40:22;;;;;;;27.80;8.10;;;12.70;99.90;;;;;;5058754;28;20048;-72
2022/11/10 10:42:48;;;;;;;32.50;8.63;;;12.70;99.90;;;;;;5024674;28;20073;-72
2022/11/10 10:45:17;;;;;;;31.70;8.65;;;12.60;99.90;;;;;;5058921;28;20119;-72
2022/11/10 10:47:44;;;;;;;26.80;8.05;;;12.60;99.90;;;;;;5058325;28;20384;-72
2022/11/10 10:50:32;;;;;;;33.25;10.35;;;12.70;99.90;;;;;;5058910;28;20353;-71
2022/11/10 10:53:16;;;;;;;30.10;10.68;;;12.70;99.90;;;;;;5058407;28;20087;-72
2022/11/10 10:55:53;;;;;;;33.13;10.95;;;12.80;99.90;;;;;;5038763;28;20191;-72
2022/11/10 10:58:26;;;;;;;36.15;11.32;;;12.70;99.90;;;;;;5038541;28;20041;-73
2022/11/10 11:01:18;;;;;;;28.30;9.95;;;13.10;99.90;;;;;;5038784;28;20050;-73
2022/11/10 11:03:48;;;;;;;28.65;9.55;;;13.00;99.90;;;;;;5038758;28;20049;-72
2022/11/10 11:06:17;;;;;;;31.67;10.80;;;13.10;99.90;;;;;;5038373;28;20476;-72
2022/11/10 11:09:15;;;;;;;27.23;10.10;;;13.10;99.90;;;;;;5046133;28;20113;-72
2022/11/10 11:11:43;;;;;;;26.73;8.85;;;13.20;99.90;;;;;;5058074;28;20037;-71
2022/11/10 11:14:17;;;;;;;25.10;7.65;;;13.50;99.90;;;;;;5058356;28;20048;-72
2022/11/10 11:16:51;;;;;;;30.30;7.80;;;13.40;99.90;;;;;;5057822;28;20071;-73
2022/11/10 11:19:23;;;;;;;25.88;7.38;;;13.50;99.90;;;;;;5058386;28;20380;-73
2022/11/10 11:22:17;;;;;;;28.92;7.25;;;13.60;99.90;;;;;;5058144;28;20120;-71
2022/11/10 11:25:09;;;;;;;20.95;6.15;;;13.70;99.90;;;;;;5043500;28;20048;-73
2022/11/10 11:27:53;;;;;;;24.27;6.60;;;13.80;99.90;;;;;;5038088;28;20041;-72
2022/11/10 11:30:20;;;;;;;21.90;6.18;;;14.00;99.90;;;;;;5038147;28;20045;-72
2022/11/10 11:33:10;;;;;;;30.45;6.35;;;14.10;99.90;;;;;;5038059;28;20045;-72
2022/11/10 11:35:56;;;;;;;26.33;5.57;;;14.10;99.90;;;;;;5037830;28;20334;-72
2022/11/10 11:38:45;;;;;;;17.70;5.82;;;14.20;99.90;;;;;;5042773;28;20099;-73
2022/11/10 11:41:39;;;;;;;24.63;5.70;;;14.20;99.90;;;;;;5040382;28;20064;-72
2022/11/10 11:44:11;;;;;;;;;;;14.20;99.90;;;;;;5057409;28;20111;-73
2022/11/10 11:47:10;;;;;;;20.40;5.72;;;14.20;99.90;;;;;;5040125;28;19920;-73
2022/11/10 11:50:03;;;;;;;19.02;5.18;;;14.10;99.90;;;;;;5039952;28;20060;-72
2022/11/10 11:52:54;;;;;;;15.38;5.40;;;14.10;99.90;;;;;;5042422;28;20492;-72
2022/11/10 11:55:19;;;;;;;22.95;5.55;;;14.20;99.90;;;;;;5037637;28;20037;-72
2022/11/10 11:58:01;;;;;;;18.83;5.35;;;14.30;99.90;;;;;;5037630;28;20468;-72
2022/11/10 12:00:32;;;;;;;21.10;5.38;;;14.30;99.90;;;;;;5019692;28;20397;-72
2022/11/10 12:03:37;;;;;;;20.92;4.88;;;14.30;99.90;;;;;;5037211;28;20341;-73
2022/11/10 12:06:26;;;;;;;22.27;6.63;;;14.40;99.90;;;;;;5041447;28;20053;-73
2022/11/10 12:09:27;;;;;;;21.33;4.90;;;14.40;99.90;;;;;;5057205;28;20119;-72
2022/11/10 12:11:53;;;;;;;21.40;5.57;;;14.40;99.90;;;;;;5039709;28;20095;-73
2022/11/10 12:14:18;;;;;;;19.92;4.90;;;14.50;99.90;;;;;;5057368;28;20453;-72
2022/11/10 12:17:07;;;;;;;18.40;4.57;;;14.50;99.90;;;;;;5056404;28;20132;-71
2022/11/10 12:19:46;;;;;;;20.70;4.90;;;14.50;99.90;;;;;;5039427;28;20056;-70
2022/11/10 12:22:51;;;;;;;21.42;5.28;;;14.50;99.90;;;;;;5040310;28;20045;-73
2022/11/10 12:25:22;;;;;;;21.70;5.13;;;14.40;99.90;;;;;;5053072;28;20092;-71
2022/11/10 12:28:20;;;;;;;19.45;4.38;;;14.40;99.90;;;;;;5036936;28;20056;-71
2022/11/10 12:30:49;;;;;;;23.95;4.53;;;14.30;99.90;;;;;;5009459;28;20140;-71
2022/11/10 12:33:23;;;;;;;22.33;4.93;;;14.20;99.90;;;;;;5020330;28;20061;-71
2022/11/10 12:35:52;;;;;;;24.02;5.20;;;14.20;99.90;;;;;;5036363;28;20453;-72
2022/11/10 12:38:36;;;;;;;19.83;4.47;;;14.20;99.90;;;;;;5019650;28;20068;-72
2022/11/10 12:41:08;;;;;;;26.33;5.35;;;14.20;99.90;;;;;;5045256;28;20033;-72
2022/11/10 12:43:39;;;;;;;19.70;3.85;;;14.20;99.90;;;;;;5056764;28;20123;-72
2022/11/10 12:46:09;;;;;;;22.42;4.43;;;14.10;99.90;;;;;;5057219;28;20116;-72
2022/11/10 12:49:00;;;;;;;18.60;4.22;;;14.00;99.90;;;;;;5056386;28;20041;-72
2022/11/10 12:51:52;;;;;;;22.00;4.90;;;14.00;99.90;;;;;;5056469;28;20041;-71
2022/11/10 12:54:20;;;;;;;21.27;4.15;;;13.90;99.90;;;;;;5056498;28;20076;-71
2022/11/10 12:57:12;;;;;;;22.10;4.57;;;13.90;99.90;;;;;;5038849;28;20087;-71
2022/11/10 12:59:41;;;;;;;19.52;3.80;;;13.80;99.90;;;;;;5019440;28;20364;-72
2022/11/10 13:02:33;;;;;;;16.58;3.85;;;13.80;99.90;;;;;;5036287;28;20045;-71
2022/11/10 13:05:28;;;;;;;21.98;5.15;;;13.80;99.90;;;;;;5036568;28;20053;-72